Terminal Aerodrome Forecast
Issued by NWS St Louis, MO

Home | Current Version | Previous Version | Text Only | Print | Product List | Glossary On
Versions: 1 2 3 4 5 6 7 8 9 10 11 12 13 14 15 16 17 18 19 20 21 22 23 24 25 26 27 28 29 30 31 32 33
000
FTUS43 KLSX 261100
TAFSTL
TAF
KSTL 261125Z 2612/2718 33012G20KT P6SM BKN015 OVC050
     FM261500 33012G20KT P6SM SCT050 BKN120
     FM261800 33012G20KT P6SM SKC
     FM270000 33006KT P6SM BKN250
     FM270600 34005KT P6SM SCT050 BKN120
     FM271500 34008KT P6SM SKC=

USA.gov is the U.S. government's official web portal to all federal, state and local government web resources and services.